Time;durP1;ratioP1;P1;durP2;ratioP2;P2;SDS_P1;SDS_P2;PMS_P1;PMS_P2;Temp;Humidity;BMP_temperature;BMP_pressure;BME280_temperature;BME280_humidity;BME280_pressure;Samples;Min_cycle;Max_cycle;Signal;HPM_P1;HPM_P2
2022/10/26 00:00:09;;;;;;;5.82;3.55;;;;;;;22.56;47.28;101565.13;5085322;28;20039;-67
2022/10/26 00:02:39;;;;;;;5.68;3.40;;;;;;;22.54;47.36;101564.47;5092969;28;20108;-68
2022/10/26 00:05:05;;;;;;;4.00;3.13;;;;;;;22.51;47.25;101548.91;5085847;28;20513;-67
2022/10/26 00:07:31;;;;;;;3.95;3.38;;;;;;;22.48;47.39;101554.59;5089811;28;20048;-67
2022/10/26 00:09:56;;;;;;;5.60;2.92;;;;;;;22.54;47.16;101551.19;5090432;28;20099;-67
2022/10/26 00:12:23;;;;;;;5.28;3.60;;;;;;;22.53;47.62;101548.72;5095965;28;20063;-67
2022/10/26 00:14:48;;;;;;;5.32;3.60;;;;;;;22.47;47.67;101552.94;5093766;28;20114;-67
2022/10/26 00:17:14;;;;;;;4.57;3.17;;;;;;;22.56;47.23;101551.03;5093883;28;20035;-67
2022/10/26 00:19:39;;;;;;;5.88;3.35;;;;;;;22.52;47.25;101547.91;5090230;28;20057;-67
2022/10/26 00:22:05;;;;;;;4.85;3.20;;;;;;;22.49;47.23;101536.84;5089385;28;22783;-67
2022/10/26 00:24:30;;;;;;;5.07;3.13;;;;;;;22.48;47.56;101543.97;5086847;28;20105;-67
2022/10/26 00:26:56;;;;;;;5.75;3.40;;;;;;;22.52;47.57;101539.13;5081819;28;20047;-67
2022/10/26 00:29:21;;;;;;;4.93;3.30;;;;;;;22.49;47.13;101540.31;5091599;28;20047;-67
2022/10/26 00:31:47;;;;;;;5.47;3.75;;;;;;;22.48;47.05;101541.31;5084577;28;20105;-67
2022/10/26 00:34:12;;;;;;;4.82;3.10;;;;;;;22.45;47.14;101544.34;5085427;28;20043;-67
2022/10/26 00:36:38;;;;;;;5.45;3.67;;;;;;;22.44;47.29;101552.44;5087947;28;20104;-67
2022/10/26 00:39:03;;;;;;;4.50;3.20;;;;;;;22.47;47.45;101552.13;5086506;28;20856;-67
2022/10/26 00:41:31;;;;;;;6.13;3.33;;;;;;;22.51;47.33;101548.91;5092183;28;20044;-67
2022/10/26 00:43:58;;;;;;;4.07;3.17;;;;;;;22.51;47.17;101543.59;5086790;28;20043;-67
2022/10/26 00:46:34;;;;;;;4.05;2.88;;;;;;;22.52;47.38;101537.28;5091342;28;20616;-68
2022/10/26 00:49:16;;;;;;;4.95;3.22;;;;;;;22.49;47.14;101542.13;5089665;28;20027;-67
2022/10/26 00:51:47;;;;;;;5.93;3.40;;;;;;;22.45;47.50;101535.53;5088287;28;20154;-67
2022/10/26 00:54:19;;;;;;;4.80;3.22;;;;;;;22.38;47.16;101531.94;5088034;28;20111;-67
2022/10/26 00:56:48;;;;;;;4.15;3.10;;;;;;;22.47;47.07;101533.53;5090216;28;20031;-67
2022/10/26 00:59:16;;;;;;;4.33;3.07;;;;;;;22.51;47.05;101534.81;5091729;28;20131;-67
2022/10/26 01:01:45;;;;;;;5.03;3.05;;;;;;;22.45;47.44;101532.91;5090982;28;20028;-67
2022/10/26 01:04:12;;;;;;;3.25;2.50;;;;;;;22.44;47.24;101536.53;5093195;28;20035;-67
2022/10/26 01:06:40;;;;;;;3.45;2.85;;;;;;;22.44;47.33;101532.06;5090781;28;20428;-67
2022/10/26 01:09:05;;;;;;;5.05;3.17;;;;;;;22.45;47.52;101530.25;5084510;28;20042;-68
2022/10/26 01:11:31;;;;;;;3.55;2.97;;;;;;;22.41;47.09;101529.75;5093558;28;20028;-68
2022/10/26 01:14:00;;;;;;;4.18;3.22;;;;;;;22.43;47.03;101530.38;5086994;28;20040;-68
2022/10/26 01:16:45;;;;;;;4.15;3.10;;;;;;;22.41;47.36;101516.47;5086490;28;20039;-68
2022/10/26 01:19:13;;;;;;;4.78;3.28;;;;;;;22.42;47.49;101527.91;5089178;28;20040;-68
2022/10/26 01:21:58;;;;;;;4.32;3.22;;;;;;;22.48;47.04;101520.09;5088514;28;20430;-68
2022/10/26 01:24:41;;;;;;;3.70;2.75;;;;;;;22.46;47.44;101521.28;5091396;28;20135;-68
2022/10/26 01:27:25;;;;;;;4.38;3.10;;;;;;;22.40;47.31;101520.16;5091576;28;21418;-68
2022/10/26 01:30:14;;;;;;;5.10;2.88;;;;;;;22.44;47.34;101513.50;5088895;28;20039;-68
2022/10/26 01:33:01;;;;;;;4.72;2.90;;;;;;;22.39;47.22;101510.53;5090650;28;20428;-68
2022/10/26 01:35:31;;;;;;;3.22;2.90;;;;;;;22.35;47.38;101503.13;5087591;28;20058;-68
2022/10/26 01:38:25;;;;;;;4.97;3.03;;;;;;;22.39;47.41;101509.72;5085410;28;20074;-68
2022/10/26 01:40:59;;;;;;;3.83;2.92;;;;;;;22.36;47.39;101504.78;5088823;28;20116;-68
2022/10/26 01:43:31;;;;;;;4.47;3.10;;;;;;;22.41;46.93;101500.56;5089623;28;20359;-67
2022/10/26 01:45:57;;;;;;;3.80;2.90;;;;;;;22.35;47.15;101493.34;5089466;28;20045;-68
2022/10/26 01:48:25;;;;;;;3.65;3.00;;;;;;;22.33;47.32;101500.66;5085136;28;20040;-68
2022/10/26 01:50:52;;;;;;;4.97;2.80;;;;;;;22.34;47.21;101489.03;5092912;28;20477;-68
2022/10/26 01:53:18;;;;;;;5.50;3.08;;;;;;;22.35;47.33;101495.16;5090037;28;20496;-68
2022/10/26 01:55:48;;;;;;;3.60;2.95;;;;;;;22.29;47.23;101489.59;5089667;28;20036;-68
2022/10/26 01:58:32;;;;;;;;;;;;;;;22.34;47.51;101490.88;5085677;28;20036;-67
2022/10/26 02:01:04;;;;;;;4.90;2.70;;;;;;;22.36;47.30;101481.72;5089813;28;19991;-67
2022/10/26 02:03:53;;;;;;;4.15;2.95;;;;;;;22.40;46.82;101490.13;5090193;28;20240;-67
2022/10/26 02:06:39;;;;;;;5.00;3.10;;;;;;;22.27;47.48;101485.47;5087162;28;20114;-67
2022/10/26 02:09:23;;;;;;;3.60;2.80;;;;;;;22.28;47.38;101481.81;5082775;28;20050;-67
2022/10/26 02:11:52;;;;;;;4.18;3.13;;;;;;;22.19;47.42;101473.06;5087888;28;20086;-67
2022/10/26 02:14:32;;;;;;;3.47;2.87;;;;;;;22.34;47.10;101466.97;5084719;28;20116;-67
2022/10/26 02:17:05;;;;;;;4.72;3.08;;;;;;;22.29;47.24;101462.22;5088867;28;20154;-67
2022/10/26 02:19:33;;;;;;;3.05;2.65;;;;;;;22.32;47.16;101461.84;5090843;28;20515;-67
2022/10/26 02:22:22;;;;;;;3.08;2.75;;;;;;;22.36;46.85;101457.00;5086821;28;20063;-68
2022/10/26 02:24:50;;;;;;;;;;;;;;;22.33;47.27;101454.72;5088729;28;20059;-68
2022/10/26 02:27:30;;;;;;;3.97;3.10;;;;;;;22.28;47.05;101455.28;5085790;28;19926;-68
2022/10/26 02:29:58;;;;;;;4.28;3.20;;;;;;;22.31;47.17;101454.91;5091364;28;20458;-68
2022/10/26 02:32:27;;;;;;;4.35;3.25;;;;;;;22.28;47.05;101447.31;5089651;28;20054;-68
2022/10/26 02:34:55;;;;;;;4.32;3.15;;;;;;;22.26;47.21;101458.09;5088292;28;20052;-67
2022/10/26 02:37:22;;;;;;;4.60;3.03;;;;;;;22.30;46.95;101461.22;5088174;28;20492;-68
2022/10/26 02:39:51;;;;;;;5.28;2.55;;;;;;;22.29;46.86;101448.97;5085041;28;20074;-67
2022/10/26 02:42:18;;;;;;;3.63;2.65;;;;;;;22.32;47.17;101448.59;5087475;28;20140;-67
2022/10/26 02:44:52;;;;;;;4.75;2.70;;;;;;;22.33;46.79;101452.06;5086981;28;20204;-67
2022/10/26 02:47:18;;;;;;;3.58;2.78;;;;;;;22.27;47.10;101443.84;5089107;28;20027;-67
2022/10/26 02:49:44;;;;;;;3.83;2.80;;;;;;;22.24;47.07;101446.81;5085193;28;20044;-67
2022/10/26 02:52:29;;;;;;;4.38;2.90;;;;;;;22.27;46.84;101443.00;5088492;28;20039;-68
2022/10/26 02:54:57;;;;;;;4.38;3.20;;;;;;;22.24;46.88;101443.34;5088714;28;20498;-67
2022/10/26 02:57:28;;;;;;;5.95;3.28;;;;;;;22.28;46.85;101450.78;5084808;28;20039;-67
2022/10/26 02:59:55;;;;;;;3.30;3.00;;;;;;;22.14;47.23;101435.66;5085950;28;20040;-67
2022/10/26 03:02:22;;;;;;;4.55;3.00;;;;;;;22.25;46.90;101434.38;5084921;28;20083;-67
2022/10/26 03:04:49;;;;;;;4.75;3.05;;;;;;;22.22;46.92;101432.09;5089387;28;20114;-67
2022/10/26 03:07:25;;;;;;;3.60;3.05;;;;;;;22.19;47.10;101430.63;5085045;28;20499;-68
2022/10/26 03:09:50;;;;;;;3.72;3.00;;;;;;;22.24;46.92;101428.25;5089779;28;20040;-67
2022/10/26 03:12:16;;;;;;;3.55;2.80;;;;;;;22.23;46.96;101429.25;5090755;28;20050;-67
2022/10/26 03:14:41;;;;;;;4.43;2.97;;;;;;;22.26;46.81;101428.06;5088876;28;20051;-67
2022/10/26 03:17:07;;;;;;;3.63;2.90;;;;;;;22.07;47.06;101407.38;5082207;28;20044;-67
2022/10/26 03:19:32;;;;;;;4.88;2.90;;;;;;;22.28;46.84;101428.75;5086849;28;20374;-67
2022/10/26 03:21:58;;;;;;;4.47;3.45;;;;;;;22.15;47.26;101423.22;5086254;28;20096;-66
2022/10/26 03:24:23;;;;;;;3.13;2.63;;;;;;;22.15;47.09;101431.19;5079971;28;20031;-66
2022/10/26 03:26:49;;;;;;;4.10;2.80;;;;;;;22.16;47.05;101431.00;5086811;28;20043;-66
2022/10/26 03:29:15;;;;;;;4.45;3.30;;;;;;;22.16;46.99;101419.56;5088381;28;20040;-67
2022/10/26 03:31:40;;;;;;;4.38;3.17;;;;;;;22.17;46.75;101427.34;5084533;28;20059;-66
2022/10/26 03:34:15;;;;;;;3.72;2.88;;;;;;;22.19;46.96;101427.97;5085421;28;20052;-67
2022/10/26 03:36:42;;;;;;;3.13;2.60;;;;;;;22.13;47.14;101428.72;5085697;28;20485;-68
2022/10/26 03:39:07;;;;;;;3.38;3.03;;;;;;;22.14;47.02;101433.00;5087338;28;20039;-67
2022/10/26 03:41:33;;;;;;;3.85;2.63;;;;;;;22.11;47.17;101424.59;5085448;28;20104;-67
2022/10/26 03:43:58;;;;;;;4.32;2.83;;;;;;;22.12;46.95;101415.63;5085617;28;20101;-66
2022/10/26 03:46:24;;;;;;;3.05;2.75;;;;;;;22.09;47.29;101423.97;5085276;28;20040;-67
2022/10/26 03:48:49;;;;;;;4.80;3.25;;;;;;;22.05;47.28;101423.47;5086149;28;20044;-67
2022/10/26 03:51:15;;;;;;;4.68;3.05;;;;;;;22.18;47.06;101426.34;5085181;28;20054;-67
2022/10/26 03:53:40;;;;;;;3.95;3.00;;;;;;;22.02;46.94;101397.28;5081801;28;20510;-68
2022/10/26 03:56:06;;;;;;;3.78;3.05;;;;;;;22.12;46.92;101403.19;5087014;28;20039;-67
2022/10/26 03:58:31;;;;;;;3.72;3.05;;;;;;;22.10;47.29;101405.22;5087589;28;20404;-67
2022/10/26 04:00:57;;;;;;;4.95;3.15;;;;;;;22.09;46.78;101405.38;5088576;28;20100;-67
2022/10/26 04:03:22;;;;;;;5.60;3.13;;;;;;;22.10;46.89;101407.03;5087021;28;20390;-67
2022/10/26 04:05:48;;;;;;;3.67;2.80;;;;;;;22.07;46.84;101402.88;5083898;28;20045;-67
2022/10/26 04:08:14;;;;;;;3.50;2.97;;;;;;;22.05;47.15;101404.91;5084328;28;20554;-68
2022/10/26 04:10:39;;;;;;;3.63;3.10;;;;;;;22.11;46.87;101412.16;5083148;28;20058;-67
2022/10/26 04:13:05;;;;;;;4.22;3.10;;;;;;;22.13;47.14;101409.31;5080558;28;20386;-67
2022/10/26 04:15:30;;;;;;;4.60;3.08;;;;;;;22.05;47.07;101404.09;5088476;28;20097;-67
2022/10/26 04:17:57;;;;;;;4.43;3.00;;;;;;;22.12;46.93;101411.16;5077725;28;20081;-67
2022/10/26 04:20:23;;;;;;;3.58;2.90;;;;;;;22.03;47.09;101407.72;5086090;28;20035;-67
2022/10/26 04:22:59;;;;;;;5.07;3.35;;;;;;;22.09;47.13;101411.53;5085215;28;20444;-67
2022/10/26 04:25:25;;;;;;;3.85;2.58;;;;;;;22.08;47.20;101404.53;5086069;28;20035;-67
2022/10/26 04:27:51;;;;;;;3.75;3.10;;;;;;;22.07;46.80;101408.19;5087488;28;20097;-67
2022/10/26 04:30:17;;;;;;;4.72;3.28;;;;;;;22.09;47.03;101418.66;5087863;28;20035;-67
2022/10/26 04:32:42;;;;;;;3.85;3.13;;;;;;;22.03;47.13;101410.34;5090395;28;20079;-67
2022/10/26 04:35:08;;;;;;;4.30;2.75;;;;;;;22.05;47.15;101417.34;5094101;28;20043;-67
2022/10/26 04:37:34;;;;;;;3.58;2.92;;;;;;;22.11;47.00;101417.47;5090412;28;20035;-67
2022/10/26 04:39:59;;;;;;;3.70;3.08;;;;;;;22.03;46.84;101412.19;5089573;28;20054;-67
2022/10/26 04:42:24;;;;;;;3.53;3.00;;;;;;;22.07;47.06;101412.69;5093418;28;20040;-67
2022/10/26 04:44:50;;;;;;;3.60;2.80;;;;;;;22.10;47.12;101404.38;5093184;28;20091;-67
2022/10/26 04:47:15;;;;;;;3.63;2.90;;;;;;;22.03;47.00;101414.84;5092697;28;20043;-66
2022/10/26 04:49:41;;;;;;;4.28;3.20;;;;;;;21.91;47.12;101405.69;5092107;28;20035;-67
2022/10/26 04:52:06;;;;;;;4.53;3.10;;;;;;;22.04;47.12;101419.13;5089322;28;20504;-67
2022/10/26 04:54:32;;;;;;;3.50;3.15;;;;;;;22.08;46.54;101415.16;5088831;28;20051;-67
2022/10/26 04:56:58;;;;;;;4.70;3.35;;;;;;;22.06;46.79;101417.16;5090166;28;20545;-67
2022/10/26 04:59:23;;;;;;;4.00;2.85;;;;;;;22.06;46.82;101418.97;5088731;28;20051;-67
2022/10/26 05:01:49;;;;;;;5.53;2.90;;;;;;;21.96;47.22;101414.75;5090367;28;20074;-66
2022/10/26 05:04:14;;;;;;;3.78;3.30;;;;;;;21.98;46.79;101418.03;5086299;28;20044;-67
2022/10/26 05:06:40;;;;;;;4.00;3.08;;;;;;;22.02;46.84;101418.50;5090347;28;20104;-67
2022/10/26 05:09:05;;;;;;;6.32;3.25;;;;;;;22.00;47.22;101417.84;5090567;28;20028;-68
2022/10/26 05:11:31;;;;;;;4.80;2.85;;;;;;;22.06;46.82;101408.38;5096021;28;20040;-68
2022/10/26 05:13:56;;;;;;;4.75;3.03;;;;;;;22.01;47.08;101415.03;5091474;28;20051;-67
2022/10/26 05:16:22;;;;;;;4.57;3.33;;;;;;;22.01;46.63;101411.53;5091412;28;20108;-68
2022/10/26 05:18:50;;;;;;;5.93;3.70;;;;;;;21.92;46.96;101408.16;5092000;28;20045;-68
2022/10/26 05:21:18;;;;;;;3.75;2.92;;;;;;;21.97;46.66;101408.44;5095310;28;20046;-68
2022/10/26 05:23:54;;;;;;;4.97;3.10;;;;;;;21.89;47.31;101413.78;5091137;28;20070;-68
2022/10/26 05:26:21;;;;;;;3.95;3.20;;;;;;;21.95;47.05;101413.09;5093408;28;20063;-69
2022/10/26 05:28:52;;;;;;;4.43;3.05;;;;;;;22.00;46.73;101413.38;5093134;28;20028;-66
2022/10/26 05:31:21;;;;;;;4.75;3.13;;;;;;;21.98;46.76;101406.59;5092058;28;20036;-68
2022/10/26 05:33:50;;;;;;;4.78;3.42;;;;;;;21.98;46.77;101404.78;5090461;28;20488;-67
2022/10/26 05:36:17;;;;;;;4.25;3.00;;;;;;;21.98;46.95;101404.78;5087651;28;21829;-67
2022/10/26 05:38:42;;;;;;;5.55;2.83;;;;;;;21.87;47.03;101405.19;5093487;28;20434;-67
2022/10/26 05:41:07;;;;;;;4.93;3.40;;;;;;;21.95;47.07;101399.84;5086989;28;20050;-67
2022/10/26 05:43:33;;;;;;;4.28;3.25;;;;;;;21.93;46.82;101393.06;5088904;28;20088;-67
2022/10/26 05:45:58;;;;;;;4.13;3.10;;;;;;;21.92;46.92;101399.38;5089357;28;20040;-67
2022/10/26 05:48:24;;;;;;;4.68;3.75;;;;;;;21.96;47.17;101401.47;5089339;28;20028;-67
2022/10/26 05:50:50;;;;;;;5.10;3.00;;;;;;;21.95;46.84;101394.53;5089546;28;20036;-67
2022/10/26 05:53:15;;;;;;;3.80;3.15;;;;;;;21.88;46.92;101385.63;5090718;28;20031;-67
2022/10/26 05:55:41;;;;;;;4.32;3.03;;;;;;;21.91;47.01;101395.91;5089568;28;20038;-67
2022/10/26 05:58:14;;;;;;;4.13;2.83;;;;;;;21.98;46.59;101388.03;5088479;28;20035;-68
2022/10/26 06:00:56;;;;;;;3.92;3.30;;;;;;;21.88;46.84;101393.59;5088130;28;20058;-68
2022/10/26 06:03:33;;;;;;;4.25;3.17;;;;;;;21.84;46.95;101386.19;5088286;28;20039;-67
2022/10/26 06:05:58;;;;;;;4.22;3.30;;;;;;;21.87;46.93;101394.59;5094084;28;20042;-67
2022/10/26 06:08:27;;;;;;;5.32;3.78;;;;;;;21.86;47.11;101390.28;5092183;28;20039;-66
2022/10/26 06:10:54;;;;;;;5.07;3.45;;;;;;;21.87;46.71;101389.28;5094370;28;20042;-67
2022/10/26 06:13:20;;;;;;;5.00;3.35;;;;;;;21.89;47.07;101399.72;5088807;28;20135;-66
2022/10/26 06:16:13;;;;;;;4.07;3.08;;;;;;;21.83;47.27;101397.78;5092336;28;20035;-68
2022/10/26 06:19:00;;;;;;;3.83;3.40;;;;;;;21.85;47.00;101399.25;5091262;28;20043;-67
2022/10/26 06:21:55;;;;;;;4.45;3.40;;;;;;;21.96;47.06;101405.97;5084518;28;20031;-67
2022/10/26 06:24:30;;;;;;;3.75;2.95;;;;;;;21.94;46.53;101400.84;5088930;28;20047;-67
2022/10/26 06:27:00;;;;;;;4.88;3.40;;;;;;;21.92;46.90;101400.22;5086644;28;20040;-67
2022/10/26 06:29:40;;;;;;;5.30;3.80;;;;;;;21.88;46.85;101395.41;5089937;28;20069;-67
2022/10/26 06:32:08;;;;;;;3.88;2.85;;;;;;;21.91;46.85;101401.22;5089464;28;20498;-67
2022/10/26 06:34:36;;;;;;;4.90;3.42;;;;;;;21.88;47.12;101398.06;5095295;28;20123;-67
2022/10/26 06:37:03;;;;;;;4.05;2.88;;;;;;;21.92;47.10;101396.72;5093230;28;20043;-67
2022/10/26 06:39:34;;;;;;;4.50;2.83;;;;;;;21.81;47.02;101392.66;5093698;28;20489;-66
2022/10/26 06:42:00;;;;;;;4.18;3.30;;;;;;;21.87;46.97;101397.25;5089480;28;20039;-67
2022/10/26 06:44:28;;;;;;;4.05;3.03;;;;;;;21.88;47.10;101387.47;5092048;28;20039;-67
2022/10/26 06:47:02;;;;;;;4.05;3.03;;;;;;;21.85;46.73;101393.94;5089659;28;20047;-67
2022/10/26 06:49:47;;;;;;;4.22;3.13;;;;;;;21.80;46.87;101380.41;5088658;28;20040;-67
2022/10/26 06:52:22;;;;;;;4.60;3.15;;;;;;;21.77;46.62;101378.13;5091967;28;20435;-67
2022/10/26 06:54:53;;;;;;;4.50;3.20;;;;;;;21.90;46.96;101404.88;5090053;28;20220;-67
2022/10/26 06:57:23;;;;;;;4.25;2.90;;;;;;;21.90;46.55;101407.53;5093908;28;20465;-67
2022/10/26 06:59:49;;;;;;;5.00;3.22;;;;;;;21.93;46.79;101412.47;5093891;28;20027;-67
2022/10/26 07:02:15;;;;;;;3.45;3.00;;;;;;;21.81;46.90;101408.56;5089918;28;20143;-67
2022/10/26 07:04:41;;;;;;;5.72;3.63;;;;;;;21.79;47.18;101407.13;5099472;28;20051;-67
2022/10/26 07:07:22;;;;;;;3.65;2.90;;;;;;;21.89;46.62;101418.28;5089858;28;20085;-67
2022/10/26 07:09:48;;;;;;;4.55;3.10;;;;;;;21.83;46.97;101416.34;5095920;28;20613;-67
2022/10/26 07:12:14;;;;;;;5.03;3.15;;;;;;;21.88;46.63;101408.66;5092884;28;20122;-67
2022/10/26 07:14:39;;;;;;;5.43;3.40;;;;;;;21.81;47.21;101416.53;5093338;28;20040;-67
2022/10/26 07:17:05;;;;;;;4.65;3.22;;;;;;;21.79;47.10;101404.47;5090481;28;20093;-67
2022/10/26 07:19:31;;;;;;;3.78;2.90;;;;;;;21.85;47.05;101403.72;5091146;28;20062;-67
2022/10/26 07:22:00;;;;;;;5.28;3.40;;;;;;;21.85;47.10;101396.59;5088559;28;20040;-67
2022/10/26 07:24:26;;;;;;;4.80;3.10;;;;;;;21.82;47.12;101406.75;5091960;28;20024;-67
2022/10/26 07:26:56;;;;;;;4.85;3.30;;;;;;;21.77;47.27;101403.81;5090091;28;20031;-67
2022/10/26 07:29:22;;;;;;;;;;;;;;;21.85;47.04;101401.91;5091543;28;20040;-67
2022/10/26 07:31:48;;;;;;;4.13;2.95;;;;;;;21.86;46.75;101406.22;5092220;28;19916;-67
2022/10/26 07:34:13;;;;;;;5.10;3.03;;;;;;;21.89;46.68;101415.63;5089037;28;20526;-67
2022/10/26 07:36:39;;;;;;;5.60;3.33;;;;;;;21.84;46.70;101402.91;5091800;28;20508;-67
2022/10/26 07:39:07;;;;;;;3.20;2.80;;;;;;;21.85;46.91;101417.00;5091291;28;20032;-67
2022/10/26 07:41:33;;;;;;;4.00;3.35;;;;;;;21.83;46.84;101417.16;5094554;28;20609;-67
2022/10/26 07:43:59;;;;;;;4.40;3.33;;;;;;;21.84;46.98;101420.66;5092046;28;20119;-67
2022/10/26 07:46:25;;;;;;;4.10;3.00;;;;;;;21.79;46.76;101409.75;5085404;28;20028;-67
2022/10/26 07:48:51;;;;;;;4.95;3.22;;;;;;;21.84;46.59;101410.03;5089797;28;20584;-67
2022/10/26 07:51:17;;;;;;;5.82;3.20;;;;;;;21.79;47.08;101407.13;5089562;28;20046;-67
2022/10/26 07:53:44;;;;;;;5.18;2.97;;;;;;;21.79;47.07;101412.41;5091812;28;20118;-67
2022/10/26 07:56:10;;;;;;;4.07;3.20;;;;;;;21.85;46.54;101403.72;5093565;28;20529;-67
2022/10/26 07:58:36;;;;;;;3.85;3.10;;;;;;;21.79;47.00;101402.63;5089369;28;20051;-67
2022/10/26 08:01:10;;;;;;;5.03;2.83;;;;;;;21.82;46.88;101399.63;5088614;28;20497;-67
2022/10/26 08:03:35;;;;;;;3.85;2.92;;;;;;;21.82;46.68;101396.97;5099257;28;20028;-67
2022/10/26 08:06:03;;;;;;;4.18;2.72;;;;;;;21.75;46.92;101404.00;5094441;28;20092;-67
2022/10/26 08:08:30;;;;;;;3.88;2.92;;;;;;;21.73;47.34;101397.22;5091337;28;20071;-67
2022/10/26 08:10:56;;;;;;;3.88;2.92;;;;;;;21.81;46.77;101395.31;5095395;28;20488;-67
2022/10/26 08:13:22;;;;;;;3.92;3.00;;;;;;;21.83;46.76;101393.31;5097857;28;20050;-66
2022/10/26 08:15:47;;;;;;;4.68;3.10;;;;;;;21.86;46.95;101392.13;5098242;28;20050;-67
2022/10/26 08:18:13;;;;;;;4.45;2.92;;;;;;;21.82;47.13;101396.97;5097245;28;20050;-67
2022/10/26 08:20:38;;;;;;;3.30;2.72;;;;;;;21.80;47.13;101404.28;5093356;28;20031;-67
2022/10/26 08:23:07;;;;;;;6.50;3.40;;;;;;;21.79;46.94;101394.69;5095076;28;20580;-67
2022/10/26 08:25:33;;;;;;;4.43;2.67;;;;;;;21.82;46.81;101410.22;5095111;28;20039;-67
2022/10/26 08:28:03;;;;;;;3.88;2.80;;;;;;;21.86;46.71;101410.69;5091295;28;20071;-67
2022/10/26 08:30:32;;;;;;;3.80;2.70;;;;;;;21.90;46.84;101412.81;5098090;28;20626;-67
2022/10/26 08:33:02;;;;;;;3.17;2.88;;;;;;;21.88;46.58;101417.44;5096359;28;20059;-67
2022/10/26 08:35:28;;;;;;;4.20;3.00;;;;;;;21.93;46.63;101408.97;5097462;28;20054;-67
2022/10/26 08:37:54;;;;;;;3.65;2.58;;;;;;;21.81;47.07;101418.34;5093090;28;20433;-67
2022/10/26 08:40:25;;;;;;;4.07;2.67;;;;;;;21.86;46.99;101421.28;5098057;28;20042;-67
2022/10/26 08:42:57;;;;;;;3.92;2.65;;;;;;;21.85;46.58;101409.84;5095519;28;20035;-67
2022/10/26 08:45:34;;;;;;;3.30;2.60;;;;;;;21.96;46.61;101404.13;5095633;28;20032;-67
2022/10/26 08:48:04;;;;;;;3.55;2.85;;;;;;;21.91;46.58;101408.34;5096695;28;20035;-67
2022/10/26 08:50:29;;;;;;;;;;;;;;;21.88;47.09;101414.81;5093653;28;20256;-67
2022/10/26 08:53:22;;;;;;;5.40;3.00;;;;;;;21.90;47.14;101414.63;5096016;28;20039;-67
2022/10/26 08:55:53;;;;;;;3.60;2.83;;;;;;;21.87;47.11;101405.19;5087030;28;20425;-68
2022/10/26 08:58:26;;;;;;;4.68;2.80;;;;;;;21.93;46.91;101414.28;5089458;28;20039;-70
2022/10/26 09:00:51;;;;;;;4.50;3.17;;;;;;;21.88;46.72;101419.28;5092407;28;20036;-69
2022/10/26 09:03:18;;;;;;;4.35;2.70;;;;;;;21.92;46.94;101412.63;5098221;28;20035;-70
2022/10/26 09:06:08;;;;;;;3.28;2.60;;;;;;;21.91;47.00;101418.94;5095335;28;20553;-69
2022/10/26 09:08:43;;;;;;;;;;;;;;;21.89;47.18;101418.28;5095720;28;21042;-70
2022/10/26 09:11:17;;;;;;;3.40;2.38;;;;;;;21.90;47.00;101401.34;5098703;28;19923;-70
2022/10/26 09:13:53;;;;;;;2.97;2.60;;;;;;;21.85;46.83;101399.25;5090485;28;20031;-70
2022/10/26 09:16:41;;;;;;;2.78;2.50;;;;;;;21.93;47.04;101406.34;5095534;28;20531;-70
2022/10/26 09:19:34;;;;;;;3.58;2.60;;;;;;;21.87;47.10;101404.38;5090885;28;20031;-70
2022/10/26 09:22:15;;;;;;;2.83;2.50;;;;;;;21.92;47.14;101408.16;5091964;28;20051;-70
2022/10/26 09:24:50;;;;;;;2.85;2.45;;;;;;;21.87;47.10;101413.16;5094764;28;20382;-70
2022/10/26 09:27:46;;;;;;;3.83;2.55;;;;;;;21.86;46.86;101415.97;5091933;28;20036;-70
2022/10/26 09:30:17;;;;;;;4.15;2.40;;;;;;;21.81;47.05;101416.53;5090970;28;20088;-70
2022/10/26 09:32:57;;;;;;;2.55;2.33;;;;;;;21.99;46.88;101416.22;5091070;28;20447;-70
2022/10/26 09:35:48;;;;;;;4.38;2.72;;;;;;;21.94;46.99;101413.28;5094744;28;20100;-70
2022/10/26 09:38:14;;;;;;;3.85;2.63;;;;;;;21.97;46.90;101418.22;5094764;28;20039;-70
2022/10/26 09:41:19;;;;;;;3.78;2.60;;;;;;;21.90;47.13;101422.56;5092993;28;20040;-70
2022/10/26 09:44:02;;;;;;;4.57;2.60;;;;;;;21.96;46.65;101421.88;5090606;28;20063;-69
2022/10/26 09:46:37;;;;;;;3.35;2.58;;;;;;;21.88;47.11;101417.44;5093679;28;20048;-67
2022/10/26 09:49:08;;;;;;;3.50;2.28;;;;;;;21.86;46.96;101418.63;5086995;28;20039;-70
2022/10/26 09:51:37;;;;;;;5.22;2.90;;;;;;;21.85;47.32;101417.00;5093051;28;20749;-70
2022/10/26 09:54:15;;;;;;;3.33;2.53;;;;;;;21.86;47.21;101427.41;5094001;28;20791;-69
2022/10/26 09:56:43;;;;;;;2.97;2.40;;;;;;;21.96;46.97;101422.69;5095769;28;20063;-69
2022/10/26 09:59:10;;;;;;;3.25;2.60;;;;;;;21.94;47.18;101434.50;5087893;28;20042;-69
2022/10/26 10:01:36;;;;;;;5.05;2.60;;;;;;;21.90;46.93;101430.53;5093605;28;20420;-69
2022/10/26 10:04:21;;;;;;;5.80;2.85;;;;;;;21.88;46.92;101441.31;5091014;28;20035;-69
2022/10/26 10:07:10;;;;;;;4.10;2.78;;;;;;;21.81;47.32;101442.22;5091457;28;20039;-69
2022/10/26 10:09:36;;;;;;;2.85;2.58;;;;;;;21.86;46.86;101443.31;5089691;28;20466;-70
2022/10/26 10:12:02;;;;;;;3.30;2.47;;;;;;;21.87;47.32;101452.91;5089159;28;20042;-69
2022/10/26 10:14:55;;;;;;;2.85;2.40;;;;;;;21.89;47.06;101452.75;5086859;28;20052;-70
2022/10/26 10:17:23;;;;;;;3.90;2.25;;;;;;;21.90;47.21;101446.44;5081116;28;20048;-69
2022/10/26 10:19:49;;;;;;;2.88;2.20;;;;;;;21.88;47.34;101448.44;5088514;28;20126;-69
2022/10/26 10:22:14;;;;;;;2.65;2.30;;;;;;;21.84;47.15;101449.81;5087783;28;20044;-68
2022/10/26 10:24:42;;;;;;;3.78;2.63;;;;;;;21.83;47.28;101442.84;5090046;28;20108;-69
2022/10/26 10:27:16;;;;;;;3.35;2.42;;;;;;;21.89;47.21;101456.22;5090390;28;20044;-70
2022/10/26 10:29:48;;;;;;;2.95;2.50;;;;;;;21.88;47.39;101457.22;5092843;28;20408;-70
2022/10/26 10:32:19;;;;;;;2.42;2.15;;;;;;;21.94;46.99;101451.22;5090856;28;20405;-69
2022/10/26 10:34:49;;;;;;;2.95;2.15;;;;;;;21.87;47.12;101454.75;5088164;28;20683;-69
2022/10/26 10:37:23;;;;;;;;;;;;;;;21.91;47.20;101458.72;5089941;28;20797;-69
2022/10/26 10:39:49;;;;;;;2.70;2.10;;;;;;;21.88;47.15;101456.41;5093376;28;19922;-70
2022/10/26 10:42:30;;;;;;;4.20;2.35;;;;;;;21.91;46.95;101448.13;5090512;28;20032;-69
2022/10/26 10:44:57;;;;;;;3.88;2.60;;;;;;;21.81;47.55;101456.28;5087185;28;20036;-70
2022/10/26 10:47:26;;;;;;;3.85;2.38;;;;;;;21.78;47.46;101459.31;5093164;28;20113;-70
2022/10/26 10:50:13;;;;;;;4.40;2.30;;;;;;;21.83;47.58;101456.94;5088227;28;20817;-69
2022/10/26 10:52:39;;;;;;;2.40;2.20;;;;;;;21.81;47.69;101464.25;5090768;28;20474;-69
2022/10/26 10:55:13;;;;;;;4.55;2.67;;;;;;;21.80;47.63;101461.78;5090781;28;21412;-69
2022/10/26 10:58:08;;;;;;;2.45;2.25;;;;;;;21.86;47.41;101461.88;5093564;28;20032;-70
2022/10/26 11:00:36;;;;;;;3.30;2.40;;;;;;;21.92;46.98;101455.06;5087447;28;20520;-69
2022/10/26 11:03:04;;;;;;;3.53;2.40;;;;;;;21.87;47.27;101460.06;5088810;28;20047;-69
2022/10/26 11:05:48;;;;;;;3.15;2.58;;;;;;;21.88;47.35;101448.44;5092481;28;20027;-69
2022/10/26 11:08:49;;;;;;;3.03;2.53;;;;;;;21.85;47.56;101441.69;5085062;28;20023;-69
2022/10/26 11:11:35;;;;;;;5.63;2.60;;;;;;;21.86;47.24;101437.19;5080574;28;20113;-69
2022/10/26 11:14:07;;;;;;;3.90;2.47;;;;;;;21.83;47.62;101426.94;5084730;28;20075;-70
2022/10/26 11:16:36;;;;;;;3.08;2.40;;;;;;;21.84;47.27;101428.59;5083355;28;20058;-69
2022/10/26 11:19:19;;;;;;;4.65;2.50;;;;;;;21.83;47.34;101421.66;5086827;28;20040;-71
2022/10/26 11:21:49;;;;;;;3.35;2.40;;;;;;;21.86;47.39;101439.84;5087253;28;20039;-70
2022/10/26 11:24:15;;;;;;;;;;;;;;;21.88;47.41;101441.31;5086983;28;20062;-69
2022/10/26 11:26:56;;;;;;;3.55;2.30;;;;;;;21.86;47.54;101447.81;5090897;28;20424;-69
2022/10/26 11:29:28;;;;;;;3.13;2.20;;;;;;;21.90;47.45;101457.03;5084889;28;20140;-70
2022/10/26 11:32:02;;;;;;;5.10;2.70;;;;;;;21.92;47.62;101458.53;5090993;28;20043;-70
2022/10/26 11:34:48;;;;;;;2.60;2.20;;;;;;;21.94;47.23;101450.41;5088796;28;20592;-70
2022/10/26 11:37:22;;;;;;;3.85;2.50;;;;;;;21.82;47.83;101444.69;5084781;28;20039;-70
2022/10/26 11:40:13;;;;;;;3.97;2.35;;;;;;;21.87;47.70;101473.31;5091024;28;20044;-70
2022/10/26 11:42:49;;;;;;;3.95;2.42;;;;;;;21.89;47.94;101477.44;5092742;28;20047;-70